createdAt,value
2023-01-19T00:00:13.214Z,22.82
2023-01-19T00:00:44.600Z,22.85
2023-01-19T00:01:16.006Z,22.84
2023-01-19T00:01:47.483Z,22.89
2023-01-19T00:02:18.955Z,22.88
2023-01-19T00:02:50.529Z,22.90
2023-01-19T00:03:21.963Z,22.90
2023-01-19T00:03:53.403Z,22.90
2023-01-19T00:04:27.815Z,22.90
2023-01-19T00:04:59.233Z,22.88
2023-01-19T00:05:30.721Z,22.87
2023-01-19T00:06:02.197Z,22.89
2023-01-19T00:06:33.695Z,22.90
2023-01-19T00:07:05.175Z,22.89
2023-01-19T00:07:36.647Z,22.87
2023-01-19T00:08:08.049Z,22.89
2023-01-19T00:08:39.574Z,22.89
2023-01-19T00:09:10.995Z,22.93
2023-01-19T00:09:42.426Z,22.94
2023-01-19T00:10:13.818Z,22.91
2023-01-19T00:10:45.250Z,22.86
2023-01-19T00:11:16.725Z,22.91
2023-01-19T00:11:48.135Z,22.91
2023-01-19T00:12:19.856Z,22.89
2023-01-19T00:12:51.256Z,22.90
2023-01-19T00:13:22.683Z,22.89
2023-01-19T00:13:54.097Z,22.83
2023-01-19T00:14:25.529Z,22.84
2023-01-19T00:14:57.037Z,22.83
2023-01-19T00:15:28.449Z,22.83
2023-01-19T00:15:59.945Z,22.86
2023-01-19T00:16:31.443Z,22.83
2023-01-19T00:17:02.894Z,22.82
2023-01-19T00:17:34.308Z,22.84
2023-01-19T00:18:05.666Z,22.87
2023-01-19T00:18:37.163Z,22.83
2023-01-19T00:19:08.604Z,22.85
2023-01-19T00:19:40.068Z,22.83
2023-01-19T00:20:11.464Z,22.82
2023-01-19T00:20:42.919Z,22.82
2023-01-19T00:21:14.396Z,22.86
2023-01-19T00:21:45.779Z,22.84
2023-01-19T00:22:17.247Z,22.81
2023-01-19T00:22:48.624Z,22.88
2023-01-19T00:23:20.166Z,22.87
2023-01-19T00:23:51.596Z,22.76
2023-01-19T00:24:22.957Z,22.76
2023-01-19T00:24:54.391Z,22.75
2023-01-19T00:25:25.819Z,22.75
2023-01-19T00:25:57.295Z,22.74
2023-01-19T00:26:28.834Z,22.76
2023-01-19T00:27:00.220Z,22.82
2023-01-19T00:27:31.704Z,22.84
2023-01-19T00:28:03.144Z,22.83
2023-01-19T00:28:34.672Z,22.85
2023-01-19T00:29:06.076Z,22.86
2023-01-19T00:29:37.517Z,22.81
2023-01-19T00:30:08.946Z,22.80
2023-01-19T00:30:40.361Z,22.82
2023-01-19T00:31:11.769Z,22.87
2023-01-19T00:31:43.262Z,22.83
2023-01-19T00:32:14.665Z,22.76
2023-01-19T00:32:46.070Z,22.81
2023-01-19T00:33:17.497Z,22.88
2023-01-19T00:33:49.022Z,22.85
2023-01-19T00:34:20.553Z,22.83
2023-01-19T00:34:51.946Z,22.86
2023-01-19T00:35:23.343Z,22.85
2023-01-19T00:35:54.765Z,22.85
2023-01-19T00:36:26.247Z,22.84
2023-01-19T00:36:57.764Z,22.85
2023-01-19T00:37:29.207Z,22.83
2023-01-19T00:38:00.700Z,22.82
2023-01-19T00:38:32.166Z,22.82
2023-01-19T00:39:03.571Z,22.77
2023-01-19T00:39:34.994Z,22.78
2023-01-19T00:40:06.380Z,22.86
2023-01-19T00:40:37.803Z,22.79
2023-01-19T00:41:09.206Z,22.83
2023-01-19T00:41:40.615Z,22.78
2023-01-19T00:42:12.050Z,22.80
2023-01-19T00:42:43.480Z,22.78
2023-01-19T00:43:17.941Z,22.82
2023-01-19T00:43:49.353Z,22.79
2023-01-19T00:44:20.913Z,22.81
2023-01-19T00:44:52.304Z,22.77
2023-01-19T00:45:23.813Z,22.75
2023-01-19T00:45:55.318Z,22.80
2023-01-19T00:46:26.840Z,22.82
2023-01-19T00:46:58.269Z,22.80
2023-01-19T00:47:29.790Z,22.85
2023-01-19T00:48:01.210Z,22.81
2023-01-19T00:48:32.603Z,22.82
2023-01-19T00:49:04.031Z,22.79
2023-01-19T00:49:35.457Z,22.83
2023-01-19T00:50:06.870Z,22.85
2023-01-19T00:50:38.241Z,22.86
2023-01-19T00:51:09.663Z,22.87
2023-01-19T00:51:41.078Z,22.86
2023-01-19T00:52:12.455Z,22.85
2023-01-19T00:52:43.942Z,22.85
2023-01-19T00:53:15.349Z,22.86
2023-01-19T00:53:46.738Z,22.89
2023-01-19T00:54:18.198Z,22.87
2023-01-19T00:54:49.624Z,22.84
2023-01-19T00:55:21.261Z,22.85
2023-01-19T00:55:52.702Z,22.85
2023-01-19T00:56:24.200Z,22.87
2023-01-19T00:56:55.568Z,22.85
2023-01-19T00:57:26.948Z,22.83
2023-01-19T00:57:58.377Z,22.82
2023-01-19T00:58:29.818Z,22.87
2023-01-19T00:59:01.219Z,22.87
2023-01-19T00:59:32.627Z,22.90
2023-01-19T01:00:04.015Z,22.87
2023-01-19T01:00:35.499Z,22.84
2023-01-19T01:01:07.030Z,22.82
2023-01-19T01:01:45.472Z,22.80
2023-01-19T01:02:17.803Z,22.82
2023-01-19T01:02:49.430Z,22.83
2023-01-19T01:03:20.943Z,22.90
2023-01-19T01:03:52.331Z,22.89
2023-01-19T01:04:23.939Z,22.88
2023-01-19T01:04:55.390Z,22.86
2023-01-19T01:05:26.791Z,22.88
2023-01-19T01:05:58.221Z,22.90
2023-01-19T01:06:29.723Z,22.86
2023-01-19T01:07:01.193Z,22.84
2023-01-19T01:07:32.606Z,22.85
2023-01-19T01:08:04.060Z,22.86
2023-01-19T01:08:35.472Z,22.87
2023-01-19T01:09:06.932Z,22.87
2023-01-19T01:09:38.360Z,22.87
2023-01-19T01:10:09.730Z,22.87
2023-01-19T01:10:41.136Z,22.89
2023-01-19T01:11:12.599Z,22.91
2023-01-19T01:11:44.094Z,22.91
2023-01-19T01:12:15.508Z,22.88
2023-01-19T01:12:56.686Z,22.88
2023-01-19T01:13:30.517Z,22.86
2023-01-19T01:14:02.217Z,22.90
2023-01-19T01:14:33.609Z,22.84
2023-01-19T01:15:05.165Z,22.85
2023-01-19T01:15:36.756Z,22.88
2023-01-19T01:16:08.253Z,22.88
2023-01-19T01:16:39.662Z,22.86
2023-01-19T01:17:11.145Z,22.88
2023-01-19T01:17:42.593Z,22.90
2023-01-19T01:18:13.990Z,22.91
2023-01-19T01:18:45.427Z,22.93
2023-01-19T01:19:16.893Z,22.90
2023-01-19T01:19:48.358Z,22.87
2023-01-19T01:20:19.732Z,22.86
2023-01-19T01:20:51.142Z,22.84
2023-01-19T01:21:22.721Z,22.89
2023-01-19T01:21:54.249Z,22.91
2023-01-19T01:22:25.727Z,22.89
2023-01-19T01:22:57.193Z,22.85
2023-01-19T01:23:28.696Z,22.86
2023-01-19T01:24:00.095Z,22.85
2023-01-19T01:24:31.550Z,22.85
2023-01-19T01:25:03.035Z,22.84
2023-01-19T01:25:34.420Z,22.88
2023-01-19T01:26:05.773Z,22.87
2023-01-19T01:26:37.172Z,22.89
2023-01-19T01:27:08.666Z,22.87
2023-01-19T01:27:40.149Z,22.90
2023-01-19T01:28:11.636Z,22.83
2023-01-19T01:28:43.052Z,22.85
2023-01-19T01:29:14.476Z,22.88
2023-01-19T01:29:45.907Z,22.90
2023-01-19T01:30:17.332Z,22.88
2023-01-19T01:30:48.745Z,22.85
2023-01-19T01:31:20.273Z,22.89
2023-01-19T01:31:51.733Z,22.88
2023-01-19T01:32:23.633Z,22.90
2023-01-19T01:32:54.998Z,22.89
2023-01-19T01:33:39.970Z,22.89
2023-01-19T01:34:13.052Z,22.89
2023-01-19T01:34:44.502Z,22.93
2023-01-19T01:35:15.951Z,22.90
2023-01-19T01:35:47.410Z,22.85
2023-01-19T01:36:18.869Z,22.86
2023-01-19T01:36:50.287Z,22.87
2023-01-19T01:37:21.791Z,22.85
2023-01-19T01:37:53.191Z,22.84
2023-01-19T01:38:24.566Z,22.79
2023-01-19T01:38:55.972Z,22.83
2023-01-19T01:39:27.375Z,22.87
2023-01-19T01:39:58.783Z,22.88
2023-01-19T01:40:30.180Z,22.89
2023-01-19T01:41:01.617Z,22.82
2023-01-19T01:41:33.020Z,22.87
2023-01-19T01:42:04.718Z,22.87
2023-01-19T01:42:36.294Z,22.88
2023-01-19T01:43:07.769Z,22.88
2023-01-19T01:43:39.153Z,22.86
2023-01-19T01:44:10.549Z,22.89
2023-01-19T01:44:42.004Z,22.87
2023-01-19T01:45:13.372Z,22.83
2023-01-19T01:45:44.749Z,22.84
2023-01-19T01:46:16.256Z,22.79
2023-01-19T01:46:47.674Z,22.84
2023-01-19T01:47:19.168Z,22.81
2023-01-19T01:47:50.606Z,22.84
2023-01-19T01:48:22.021Z,22.84
2023-01-19T01:48:53.404Z,22.84
2023-01-19T01:49:24.763Z,22.87
2023-01-19T01:49:56.222Z,22.88
2023-01-19T01:50:27.656Z,22.86
2023-01-19T01:50:59.143Z,22.90
2023-01-19T01:51:30.581Z,22.90
2023-01-19T01:52:01.964Z,22.93
2023-01-19T01:52:33.491Z,22.92
2023-01-19T01:53:06.017Z,22.89
2023-01-19T01:53:39.145Z,22.92
2023-01-19T01:54:10.579Z,22.89
2023-01-19T01:54:42.029Z,22.91
2023-01-19T01:55:13.454Z,22.88
2023-01-19T01:55:44.938Z,22.92
2023-01-19T01:56:16.354Z,22.93
2023-01-19T01:56:47.773Z,22.94
2023-01-19T01:57:19.180Z,22.92
2023-01-19T01:57:50.628Z,22.92
2023-01-19T01:58:22.065Z,22.91
2023-01-19T01:58:53.478Z,22.86
2023-01-19T01:59:24.998Z,22.88
2023-01-19T01:59:56.456Z,22.88
2023-01-19T02:00:27.981Z,22.90
2023-01-19T02:00:59.585Z,22.87
2023-01-19T02:01:31.124Z,22.85
2023-01-19T02:02:02.701Z,22.87
2023-01-19T02:02:34.207Z,22.85
2023-01-19T02:03:05.721Z,22.86
2023-01-19T02:03:37.228Z,22.86
2023-01-19T02:04:08.686Z,22.89
2023-01-19T02:04:40.133Z,22.89
2023-01-19T02:05:11.552Z,22.89
2023-01-19T02:05:42.989Z,22.89
2023-01-19T02:06:14.419Z,22.86
2023-01-19T02:06:45.853Z,22.81
2023-01-19T02:07:17.277Z,22.84
2023-01-19T02:07:48.720Z,22.83
2023-01-19T02:08:20.174Z,22.85
2023-01-19T02:08:51.636Z,22.86
2023-01-19T02:09:23.043Z,22.86
2023-01-19T02:09:54.439Z,22.87
2023-01-19T02:10:25.850Z,22.88
2023-01-19T02:10:57.264Z,22.89
2023-01-19T02:11:28.673Z,22.93
2023-01-19T02:12:00.105Z,22.88
2023-01-19T02:12:31.619Z,22.83
2023-01-19T02:13:03.341Z,22.85
2023-01-19T02:13:34.968Z,22.87
2023-01-19T02:14:06.360Z,22.87
2023-01-19T02:14:37.793Z,22.88
2023-01-19T02:15:09.181Z,22.90
2023-01-19T02:15:40.646Z,22.82
2023-01-19T02:16:12.003Z,22.89
2023-01-19T02:16:43.449Z,22.92
2023-01-19T02:17:14.863Z,22.86
2023-01-19T02:17:46.309Z,22.83
2023-01-19T02:18:17.663Z,22.80
2023-01-19T02:18:49.076Z,22.78
2023-01-19T02:19:20.511Z,22.79
2023-01-19T02:19:51.931Z,22.81
2023-01-19T02:20:23.321Z,22.82
2023-01-19T02:20:54.795Z,22.81
2023-01-19T02:21:26.236Z,22.83
2023-01-19T02:21:57.605Z,22.86
2023-01-19T02:22:29.046Z,22.82
2023-01-19T02:23:00.775Z,22.85
2023-01-19T02:23:32.368Z,22.79
2023-01-19T02:24:03.773Z,22.82
2023-01-19T02:24:35.250Z,22.83
2023-01-19T02:25:06.633Z,22.80
2023-01-19T02:25:38.067Z,22.83
2023-01-19T02:26:09.505Z,22.84
2023-01-19T02:26:40.916Z,22.83
2023-01-19T02:27:12.272Z,22.80
2023-01-19T02:27:43.691Z,22.79
2023-01-19T02:28:15.294Z,22.80
2023-01-19T02:28:46.721Z,22.82
2023-01-19T02:29:18.117Z,22.84
2023-01-19T02:29:49.517Z,22.85
2023-01-19T02:30:20.909Z,22.85
2023-01-19T02:30:52.407Z,22.86
2023-01-19T02:31:23.886Z,22.87
2023-01-19T02:31:55.371Z,22.83
2023-01-19T02:32:26.932Z,22.82
2023-01-19T02:32:58.803Z,22.83
2023-01-19T02:33:30.362Z,22.78
2023-01-19T02:34:01.803Z,22.82
2023-01-19T02:34:33.275Z,22.82
2023-01-19T02:35:04.664Z,22.87
2023-01-19T02:35:36.048Z,22.83
2023-01-19T02:36:07.462Z,22.82
2023-01-19T02:36:38.864Z,22.81
2023-01-19T02:37:10.246Z,22.81
2023-01-19T02:37:41.691Z,22.78
2023-01-19T02:38:13.079Z,22.78
2023-01-19T02:38:44.556Z,22.74
2023-01-19T02:39:15.945Z,22.73
2023-01-19T02:39:47.327Z,22.78
2023-01-19T02:40:18.744Z,22.80
2023-01-19T02:40:50.123Z,22.79
2023-01-19T02:41:21.552Z,22.82
2023-01-19T02:41:52.988Z,22.83
2023-01-19T02:42:24.371Z,22.83
2023-01-19T02:42:55.808Z,22.82
2023-01-19T02:43:27.240Z,22.82
2023-01-19T02:43:58.753Z,22.84
2023-01-19T02:44:30.241Z,22.86
2023-01-19T02:45:01.650Z,22.86
2023-01-19T02:45:33.061Z,22.83
2023-01-19T02:46:04.499Z,22.85
2023-01-19T02:46:35.908Z,22.86
2023-01-19T02:47:07.292Z,22.88
2023-01-19T02:47:38.699Z,22.88
2023-01-19T02:48:10.145Z,22.87
2023-01-19T02:48:41.538Z,22.83
2023-01-19T02:49:12.947Z,22.86
2023-01-19T02:49:44.560Z,22.86
2023-01-19T02:50:15.989Z,22.87
2023-01-19T02:50:47.526Z,22.85
2023-01-19T02:51:18.982Z,22.86
2023-01-19T02:51:50.465Z,22.87
2023-01-19T02:52:21.908Z,22.85
2023-01-19T02:52:53.336Z,22.85
2023-01-19T02:53:24.825Z,22.88
2023-01-19T02:53:56.200Z,22.88
2023-01-19T02:54:27.674Z,22.89
2023-01-19T02:54:59.066Z,22.88
2023-01-19T02:55:30.437Z,22.88
2023-01-19T02:56:01.875Z,22.86
2023-01-19T02:56:33.270Z,22.90
2023-01-19T02:57:04.669Z,22.89
2023-01-19T02:57:36.047Z,22.89
2023-01-19T02:58:07.426Z,22.89
2023-01-19T02:58:38.899Z,22.87
2023-01-19T02:59:10.304Z,22.83
2023-01-19T02:59:41.676Z,22.81
2023-01-19T03:00:13.161Z,22.80
2023-01-19T03:00:44.576Z,22.78
2023-01-19T03:01:16.165Z,22.76
2023-01-19T03:01:47.701Z,22.75
2023-01-19T03:02:19.346Z,22.76
2023-01-19T03:02:50.886Z,22.77
2023-01-19T03:03:22.377Z,22.77
2023-01-19T03:03:53.793Z,22.75
2023-01-19T03:04:25.240Z,22.74
2023-01-19T03:04:56.784Z,22.75
2023-01-19T03:05:28.240Z,22.81
2023-01-19T03:05:59.641Z,22.82
2023-01-19T03:06:31.046Z,22.83
2023-01-19T03:07:02.459Z,22.84
2023-01-19T03:07:33.866Z,22.81
2023-01-19T03:08:05.266Z,22.79
2023-01-19T03:08:36.754Z,22.79
2023-01-19T03:09:08.126Z,22.78
2023-01-19T03:09:39.530Z,22.79
2023-01-19T03:10:10.885Z,22.79
2023-01-19T03:10:42.258Z,22.81
2023-01-19T03:11:13.727Z,22.78
2023-01-19T03:11:45.071Z,22.78
2023-01-19T03:12:16.555Z,22.75
2023-01-19T03:12:47.953Z,22.77
2023-01-19T03:13:19.413Z,22.73
2023-01-19T03:13:50.811Z,22.77
2023-01-19T03:14:22.227Z,22.76
2023-01-19T03:14:53.614Z,22.75
2023-01-19T03:15:25.081Z,22.75
2023-01-19T03:15:56.616Z,22.75
2023-01-19T03:16:28.090Z,22.81
2023-01-19T03:16:59.501Z,22.82
2023-01-19T03:17:31.042Z,22.81
2023-01-19T03:18:02.432Z,22.82
2023-01-19T03:18:33.928Z,22.86
2023-01-19T03:19:05.304Z,22.85
2023-01-19T03:19:36.720Z,22.82
2023-01-19T03:20:08.174Z,22.82
2023-01-19T03:20:39.569Z,22.83
2023-01-19T03:21:10.932Z,22.82
2023-01-19T03:21:42.360Z,22.79
2023-01-19T03:22:13.747Z,22.77
2023-01-19T03:22:45.159Z,22.78
2023-01-19T03:23:16.544Z,22.79
2023-01-19T03:23:47.980Z,22.84
2023-01-19T03:24:19.378Z,22.86
2023-01-19T03:24:50.818Z,22.84
2023-01-19T03:25:22.265Z,22.83
2023-01-19T03:25:53.668Z,22.80
2023-01-19T03:26:25.080Z,22.79
2023-01-19T03:26:56.571Z,22.80
2023-01-19T03:27:27.988Z,22.78
2023-01-19T03:27:59.437Z,22.78
2023-01-19T03:28:30.918Z,22.81
2023-01-19T03:29:02.502Z,22.81
2023-01-19T03:29:33.854Z,22.80
2023-01-19T03:30:05.245Z,22.77
2023-01-19T03:30:36.669Z,22.87
2023-01-19T03:31:08.113Z,22.85
2023-01-19T03:31:39.501Z,22.83
2023-01-19T03:32:10.859Z,22.91
2023-01-19T03:32:42.254Z,22.86
2023-01-19T03:33:13.773Z,22.81
2023-01-19T03:33:45.157Z,22.83
2023-01-19T03:34:16.562Z,22.81
2023-01-19T03:34:47.998Z,22.80
2023-01-19T03:35:19.404Z,22.78
2023-01-19T03:35:50.887Z,22.78
2023-01-19T03:36:22.283Z,22.75
2023-01-19T03:36:53.687Z,22.76
2023-01-19T03:37:25.085Z,22.73
2023-01-19T03:37:56.472Z,22.75
2023-01-19T03:38:27.908Z,22.72
2023-01-19T03:38:59.394Z,22.70
2023-01-19T03:39:30.811Z,22.71
2023-01-19T03:40:02.190Z,22.73
2023-01-19T03:40:33.589Z,22.72
2023-01-19T03:41:05.021Z,22.76
2023-01-19T03:41:36.413Z,22.74
2023-01-19T03:42:07.823Z,22.70
2023-01-19T03:42:39.276Z,22.72
2023-01-19T03:43:10.675Z,22.74
2023-01-19T03:43:42.071Z,22.71
2023-01-19T03:44:13.531Z,22.71
2023-01-19T03:44:45.000Z,22.69
2023-01-19T03:45:16.392Z,22.75
2023-01-19T03:45:47.802Z,22.73
2023-01-19T03:46:19.231Z,22.74
2023-01-19T03:46:50.711Z,22.75
2023-01-19T03:47:22.146Z,22.75
2023-01-19T03:47:53.599Z,22.77
2023-01-19T03:48:25.017Z,22.80
2023-01-19T03:48:56.462Z,22.79
2023-01-19T03:49:27.955Z,22.76
2023-01-19T03:49:59.384Z,22.73
2023-01-19T03:50:30.810Z,22.74
2023-01-19T03:51:02.225Z,22.72
2023-01-19T03:51:33.801Z,22.73
2023-01-19T03:52:05.222Z,22.78
2023-01-19T03:52:36.648Z,22.77
2023-01-19T03:53:08.065Z,22.77
2023-01-19T03:53:39.475Z,22.78
2023-01-19T03:54:10.922Z,22.74
2023-01-19T03:54:42.413Z,22.72
2023-01-19T03:55:13.838Z,22.75
2023-01-19T03:55:45.227Z,22.76
2023-01-19T03:56:16.680Z,22.76
2023-01-19T03:56:48.113Z,22.74
2023-01-19T03:57:19.528Z,22.80
2023-01-19T03:57:50.989Z,22.75
2023-01-19T03:58:22.381Z,22.73
2023-01-19T03:58:55.552Z,22.73
2023-01-19T03:59:27.612Z,22.68
2023-01-19T03:59:59.079Z,22.71
2023-01-19T04:00:30.499Z,22.73
2023-01-19T04:01:01.912Z,22.75
2023-01-19T04:01:33.687Z,22.71
2023-01-19T04:02:05.287Z,22.73
2023-01-19T04:02:36.721Z,22.77
2023-01-19T04:03:08.189Z,22.74
2023-01-19T04:03:39.697Z,22.75
2023-01-19T04:04:11.042Z,22.78
2023-01-19T04:04:42.476Z,22.78
2023-01-19T04:05:13.914Z,22.74
2023-01-19T04:05:45.329Z,22.77
2023-01-19T04:06:16.787Z,22.75
2023-01-19T04:06:48.195Z,22.74
2023-01-19T04:07:19.670Z,22.70
2023-01-19T04:07:51.068Z,22.73
2023-01-19T04:08:22.456Z,22.72
2023-01-19T04:08:56.467Z,22.76
2023-01-19T04:09:27.878Z,22.76
2023-01-19T04:09:59.267Z,22.77
2023-01-19T04:10:30.719Z,22.76
2023-01-19T04:11:02.126Z,22.75
2023-01-19T04:11:33.527Z,22.73
2023-01-19T04:12:04.979Z,22.70
2023-01-19T04:12:36.368Z,22.69
2023-01-19T04:13:07.775Z,22.72
2023-01-19T04:13:39.160Z,22.75
2023-01-19T04:14:10.602Z,22.71
2023-01-19T04:14:42.017Z,22.75
2023-01-19T04:15:13.425Z,22.72
2023-01-19T04:15:44.928Z,22.73
2023-01-19T04:16:16.496Z,22.73
2023-01-19T04:16:47.965Z,22.76
2023-01-19T04:17:19.345Z,22.72
2023-01-19T04:17:50.770Z,22.72
2023-01-19T04:18:22.163Z,22.73
2023-01-19T04:18:53.582Z,22.74
2023-01-19T04:19:25.020Z,22.71
2023-01-19T04:19:56.495Z,22.79
2023-01-19T04:20:27.911Z,22.78
2023-01-19T04:20:59.392Z,22.82
2023-01-19T04:21:30.791Z,22.78
2023-01-19T04:22:02.236Z,22.76
2023-01-19T04:22:33.651Z,22.73
2023-01-19T04:23:05.034Z,22.74
2023-01-19T04:23:36.517Z,22.79
2023-01-19T04:24:08.005Z,22.79
2023-01-19T04:24:39.405Z,22.80
2023-01-19T04:25:10.791Z,22.78
2023-01-19T04:25:42.220Z,22.79
2023-01-19T04:26:13.665Z,22.78
2023-01-19T04:26:45.086Z,22.75
2023-01-19T04:27:16.515Z,22.76
2023-01-19T04:27:47.960Z,22.73
2023-01-19T04:28:19.358Z,22.77
2023-01-19T04:28:50.853Z,22.73
2023-01-19T04:29:22.357Z,22.77
2023-01-19T04:29:53.749Z,22.74
2023-01-19T04:30:25.112Z,22.76
2023-01-19T04:30:56.604Z,22.77
2023-01-19T04:31:28.129Z,22.75
2023-01-19T04:31:59.577Z,22.75
2023-01-19T04:32:30.986Z,22.74
2023-01-19T04:33:02.737Z,22.74
2023-01-19T04:33:34.372Z,22.75
2023-01-19T04:34:05.828Z,22.78
2023-01-19T04:34:37.275Z,22.76
2023-01-19T04:35:08.709Z,22.75
2023-01-19T04:35:40.136Z,22.72
2023-01-19T04:36:11.530Z,22.75
2023-01-19T04:36:42.911Z,22.76
2023-01-19T04:37:14.360Z,22.77
2023-01-19T04:37:45.754Z,22.78
2023-01-19T04:38:17.200Z,22.78
2023-01-19T04:38:48.618Z,22.77
2023-01-19T04:39:20.116Z,22.75
2023-01-19T04:39:51.561Z,22.73
2023-01-19T04:40:22.945Z,22.72
2023-01-19T04:40:54.408Z,22.75
2023-01-19T04:41:25.801Z,22.75
2023-01-19T04:41:57.441Z,22.73
2023-01-19T04:42:31.905Z,22.77
2023-01-19T04:43:03.610Z,22.73
2023-01-19T04:43:35.217Z,22.74
2023-01-19T04:44:06.663Z,22.81
2023-01-19T04:44:38.145Z,22.79
2023-01-19T04:45:09.595Z,22.80
2023-01-19T04:45:40.977Z,22.77
2023-01-19T04:46:12.371Z,22.77
2023-01-19T04:46:43.805Z,22.77
2023-01-19T04:47:15.233Z,22.75
2023-01-19T04:47:46.605Z,22.79
2023-01-19T04:48:17.992Z,22.79
2023-01-19T04:48:49.393Z,22.76
2023-01-19T04:49:20.900Z,22.80
2023-01-19T04:49:52.343Z,22.80
2023-01-19T04:50:23.738Z,22.79
2023-01-19T04:50:55.145Z,22.79
2023-01-19T04:51:26.563Z,22.81
2023-01-19T04:51:58.023Z,22.81
2023-01-19T04:52:29.412Z,22.79
2023-01-19T04:53:01.120Z,22.74
2023-01-19T04:53:32.761Z,22.78
2023-01-19T04:54:04.259Z,22.85
2023-01-19T04:54:35.798Z,22.83
2023-01-19T04:55:07.298Z,22.83
2023-01-19T04:55:38.771Z,22.78
2023-01-19T04:56:10.212Z,22.79
2023-01-19T04:56:41.598Z,22.76
2023-01-19T04:57:13.246Z,22.81
2023-01-19T04:57:44.673Z,22.82
2023-01-19T04:58:16.103Z,22.77
2023-01-19T04:58:47.501Z,22.77
2023-01-19T04:59:18.890Z,22.79
2023-01-19T04:59:50.348Z,22.76
2023-01-19T05:00:21.737Z,22.77
2023-01-19T05:00:53.234Z,22.76
2023-01-19T05:01:24.735Z,22.79
2023-01-19T05:01:56.249Z,22.78
2023-01-19T05:02:27.798Z,22.77
2023-01-19T05:02:59.817Z,22.77
2023-01-19T05:03:31.585Z,22.76
2023-01-19T05:04:02.969Z,22.77
2023-01-19T05:04:34.457Z,22.81
2023-01-19T05:05:05.843Z,22.81
2023-01-19T05:05:37.233Z,22.81
2023-01-19T05:06:08.659Z,22.79
2023-01-19T05:06:40.091Z,22.80
2023-01-19T05:07:11.561Z,22.81
2023-01-19T05:07:43.024Z,22.81
2023-01-19T05:08:14.443Z,22.83
2023-01-19T05:08:45.850Z,22.77
2023-01-19T05:09:17.283Z,22.73
2023-01-19T05:09:48.763Z,22.74
2023-01-19T05:10:20.228Z,22.79
2023-01-19T05:10:51.631Z,22.78
2023-01-19T05:11:23.101Z,22.80
2023-01-19T05:11:54.517Z,22.77
2023-01-19T05:12:25.930Z,22.79
2023-01-19T05:12:57.321Z,22.77
2023-01-19T05:13:28.725Z,22.79
2023-01-19T05:14:00.135Z,22.80
2023-01-19T05:14:31.491Z,22.81
2023-01-19T05:15:02.962Z,22.78
2023-01-19T05:15:34.405Z,22.71
2023-01-19T05:16:05.847Z,22.75
2023-01-19T05:16:37.276Z,22.74
2023-01-19T05:17:08.654Z,22.79
2023-01-19T05:17:40.199Z,22.78
2023-01-19T05:18:11.678Z,22.82
2023-01-19T05:18:43.056Z,22.84
2023-01-19T05:19:14.562Z,22.80
2023-01-19T05:19:46.009Z,22.80
2023-01-19T05:20:17.528Z,22.77
2023-01-19T05:20:48.962Z,22.76
2023-01-19T05:21:20.359Z,22.73
2023-01-19T05:21:51.733Z,22.79
2023-01-19T05:22:23.119Z,22.79
2023-01-19T05:22:54.646Z,22.79
2023-01-19T05:23:26.059Z,22.76
2023-01-19T05:23:57.436Z,22.73
2023-01-19T05:24:29.021Z,22.74
2023-01-19T05:25:00.412Z,22.78
2023-01-19T05:25:31.937Z,22.79
2023-01-19T05:26:03.340Z,22.74
2023-01-19T05:26:34.709Z,22.76
2023-01-19T05:27:06.152Z,22.80
2023-01-19T05:27:37.567Z,22.79
2023-01-19T05:28:09.059Z,22.79
2023-01-19T05:28:40.404Z,22.77
2023-01-19T05:29:11.818Z,22.77
2023-01-19T05:29:43.208Z,22.71
2023-01-19T05:30:14.682Z,22.78
2023-01-19T05:30:46.161Z,22.78
2023-01-19T05:31:19.498Z,22.81
2023-01-19T05:31:51.177Z,22.84
2023-01-19T05:32:22.573Z,22.78
2023-01-19T05:32:53.966Z,22.79
2023-01-19T05:33:25.392Z,22.82
2023-01-19T05:33:56.833Z,22.77
2023-01-19T05:34:28.207Z,22.81
2023-01-19T05:34:59.618Z,22.85
2023-01-19T05:35:36.242Z,22.82
2023-01-19T05:36:08.000Z,22.76
2023-01-19T05:36:39.453Z,22.76
2023-01-19T05:37:10.842Z,22.78
2023-01-19T05:37:42.225Z,22.77
2023-01-19T05:38:14.544Z,22.75
2023-01-19T05:38:47.001Z,22.78
2023-01-19T05:39:18.397Z,22.78
2023-01-19T05:39:49.835Z,22.76
2023-01-19T05:40:21.210Z,22.75
2023-01-19T05:40:52.607Z,22.75
2023-01-19T05:41:23.992Z,22.78
2023-01-19T05:41:55.506Z,22.79
2023-01-19T05:42:26.957Z,22.77
2023-01-19T05:42:58.763Z,22.76
2023-01-19T05:43:30.401Z,22.74
2023-01-19T05:44:01.799Z,22.74
2023-01-19T05:44:33.185Z,22.79
2023-01-19T05:45:04.615Z,22.74
2023-01-19T05:45:36.013Z,22.75
2023-01-19T05:46:07.437Z,22.76
2023-01-19T05:46:38.888Z,22.80
2023-01-19T05:47:10.341Z,22.76
2023-01-19T05:47:41.751Z,22.73
2023-01-19T05:48:13.243Z,22.75
2023-01-19T05:48:44.670Z,22.76
2023-01-19T05:49:16.159Z,22.77
2023-01-19T05:49:47.571Z,22.75
2023-01-19T05:50:19.135Z,22.80
2023-01-19T05:50:50.571Z,22.78
2023-01-19T05:51:22.002Z,22.76
2023-01-19T05:51:53.398Z,22.79
2023-01-19T05:52:24.824Z,22.84
2023-01-19T05:52:56.188Z,22.81
2023-01-19T05:53:27.587Z,22.79
2023-01-19T05:53:58.982Z,22.76
2023-01-19T05:54:30.510Z,22.73
2023-01-19T05:55:01.957Z,22.75
2023-01-19T05:55:33.375Z,22.70
2023-01-19T05:56:04.782Z,22.71
2023-01-19T05:56:36.210Z,22.74
2023-01-19T05:57:07.654Z,22.74
2023-01-19T05:57:39.132Z,22.73
2023-01-19T05:58:10.570Z,22.77
2023-01-19T05:58:42.208Z,22.73
2023-01-19T05:59:13.639Z,22.74
2023-01-19T05:59:45.067Z,22.73
2023-01-19T06:00:16.760Z,22.75
2023-01-19T06:00:48.163Z,22.73
2023-01-19T06:01:19.648Z,22.75
2023-01-19T06:01:51.335Z,22.74
2023-01-19T06:02:22.856Z,22.72
2023-01-19T06:02:54.262Z,22.71
2023-01-19T06:03:25.778Z,22.71
2023-01-19T06:03:57.255Z,22.71
2023-01-19T06:04:28.641Z,22.75
2023-01-19T06:05:00.130Z,22.76
2023-01-19T06:05:31.519Z,22.73
2023-01-19T06:06:02.948Z,22.71
2023-01-19T06:06:34.350Z,22.73
2023-01-19T06:07:05.731Z,22.74
2023-01-19T06:07:37.215Z,22.72
2023-01-19T06:08:08.642Z,22.72
2023-01-19T06:08:40.062Z,22.69
2023-01-19T06:09:11.516Z,22.71
2023-01-19T06:09:43.008Z,22.68
2023-01-19T06:10:14.545Z,22.68
2023-01-19T06:10:45.921Z,22.74
2023-01-19T06:11:17.361Z,22.74
2023-01-19T06:11:48.793Z,22.74
2023-01-19T06:12:20.196Z,22.74
2023-01-19T06:12:51.626Z,22.71
2023-01-19T06:13:23.056Z,22.69
2023-01-19T06:13:54.501Z,22.68
2023-01-19T06:14:25.910Z,22.70
2023-01-19T06:14:57.302Z,22.70
2023-01-19T06:15:28.783Z,22.75
2023-01-19T06:16:00.286Z,22.78
2023-01-19T06:16:31.826Z,22.76
2023-01-19T06:17:03.302Z,22.74
2023-01-19T06:17:34.780Z,22.75
2023-01-19T06:18:06.195Z,22.75
2023-01-19T06:18:37.649Z,22.77
2023-01-19T06:19:09.075Z,22.73
2023-01-19T06:19:40.509Z,22.77
2023-01-19T06:20:11.996Z,22.77
2023-01-19T06:20:43.609Z,22.75
2023-01-19T06:21:15.125Z,22.80
2023-01-19T06:21:46.503Z,22.79
2023-01-19T06:22:17.936Z,22.80
2023-01-19T06:22:49.354Z,22.73
2023-01-19T06:23:20.778Z,22.75
2023-01-19T06:23:54.862Z,22.77
2023-01-19T06:24:26.296Z,22.76
2023-01-19T06:24:57.666Z,22.74
2023-01-19T06:25:29.130Z,22.73
2023-01-19T06:26:00.596Z,22.75
2023-01-19T06:26:32.047Z,22.75
2023-01-19T06:27:03.440Z,22.78
2023-01-19T06:27:34.887Z,22.80
2023-01-19T06:28:06.372Z,22.75
2023-01-19T06:28:37.778Z,22.74
2023-01-19T06:29:09.225Z,22.73
2023-01-19T06:29:40.590Z,22.76
2023-01-19T06:30:11.984Z,22.71
2023-01-19T06:30:43.502Z,22.70
2023-01-19T06:31:15.072Z,22.69
2023-01-19T06:31:46.660Z,22.72
2023-01-19T06:32:18.124Z,22.70
2023-01-19T06:32:49.598Z,22.75
2023-01-19T06:33:21.012Z,22.72
2023-01-19T06:33:52.381Z,22.71
2023-01-19T06:34:23.800Z,22.71
2023-01-19T06:34:55.164Z,22.76
2023-01-19T06:35:26.585Z,22.75
2023-01-19T06:35:58.138Z,22.74
2023-01-19T06:36:29.656Z,22.77
2023-01-19T06:37:01.099Z,22.74
2023-01-19T06:37:32.501Z,22.76
2023-01-19T06:38:03.950Z,22.75
2023-01-19T06:38:35.357Z,22.75
2023-01-19T06:39:06.775Z,22.74
2023-01-19T06:39:38.214Z,22.75
2023-01-19T06:40:09.617Z,22.75
2023-01-19T06:40:41.011Z,22.76
2023-01-19T06:41:12.465Z,22.72
2023-01-19T06:41:43.936Z,22.76
2023-01-19T06:42:15.350Z,22.75
2023-01-19T06:42:46.740Z,22.73
2023-01-19T06:43:18.216Z,22.73
2023-01-19T06:43:49.617Z,22.71
2023-01-19T06:44:21.081Z,22.74
2023-01-19T06:44:52.472Z,22.73
2023-01-19T06:45:23.855Z,22.72
2023-01-19T06:45:55.349Z,22.71